Latest Weather Observations for Snowtown

IDS60801

Issued at 2:01 pm CST Thursday 30 June 2016 (issued every 30 minutes, with the page automatically refreshed every 10 minutes)

About weather observations | Map of weather stations | Latest weather observations for SA | Other Formats
Station Details ID: 021133 Name: RAYVILLE PARK Lat: -33.77 Lon: 138.22 Height: 109.1 m
Data from the previous 72 hours. | See also: Recent months at Snowtown
Date/Time
CST
Temp
°C
App
Temp
°C
Dew
Point
°C
Rel
Hum
%
Delta-T
°C
Wind Press
QNH
hPa
Press
MSL
hPa
Rain since
9am
mm
Dir  Spd
km/h
Gust
km/h
Spd
kts
Gust
kts
30/02:00pm 14.2 9.8 11.7 85 1.3 WSW 26 33 14 18 1015.7 1015.8 2.2
30/01:30pm 13.2 8.4 10.4 83 1.5 W 26 35 14 19 1015.8 1015.9 2.2
30/01:10pm 11.6 5.6 10.2 91 0.7 WSW 32 50 17 27 1015.7 1015.8 2.2
30/01:00pm 11.8 4.8 9.9 88 1.0 WSW 37 50 20 27 1015.6 1015.7 1.8
30/12:30pm 13.8 7.3 10.4 80 1.8 W 35 46 19 25 1015.3 1015.4 1.4
30/12:03pm 13.2 7.0 10.2 82 1.6 W 33 52 18 28 1015.3 1015.4 1.4
30/12:00pm 13.8 8.0 11.5 86 1.2 W 33 46 18 25 1015.4 1015.5 1.4
30/11:30am 12.5 7.4 10.7 89 0.9 WNW 28 41 15 22 1015.6 1015.7 1.4
30/11:27am 12.3 7.3 11.0 92 0.7 WNW 28 46 15 25 1015.7 1015.8 1.4
30/11:00am 12.4 6.5 11.0 91 0.7 NW 33 41 18 22 1016.0 1016.1 0.2
30/10:30am 12.5 6.3 9.9 84 1.3 NW 33 43 18 23 1015.9 1016.0 0.0
30/10:00am 11.8 5.9 9.2 84 1.3 NNW 30 39 16 21 1016.0 1016.1 0.0
30/09:30am 10.9 4.9 8.5 85 1.2 NNW 30 41 16 22 1015.9 1016.0 0.0
30/09:00am 10.4 4.6 8.0 85 1.2 NNW 28 39 15 21 1015.8 1015.9 0.4
30/08:30am 9.6 2.9 7.2 85 1.1 NW 32 39 17 21 1015.5 1015.6 0.4
30/08:00am 8.9 2.4 6.7 86 1.0 NW 30 39 16 21 1015.0 1015.1 0.4
30/07:48am 9.4 3.3 6.8 84 1.2 NW 28 37 15 20 1014.9 1015.0 0.4
30/07:30am 8.7 5.0 6.3 85 1.1 NNW 15 19 8 10 1014.8 1014.9 0.4
30/07:00am 9.1 3.7 6.5 84 1.2 NNW 24 33 13 18 1014.5 1014.6 0.4
30/06:30am 9.4 3.7 6.5 82 1.4 NNW 26 33 14 18 1014.3 1014.4 0.4
30/06:00am 9.6 5.0 6.7 82 1.4 NNW 20 28 11 15 1014.1 1014.2 0.4
30/05:30am 9.2 2.3 6.5 83 1.3 NW 32 41 17 22 1013.5 1013.5 0.4
30/05:00am 9.6 0.6 6.5 81 1.5 NW 43 54 23 29 1013.1 1013.1 0.4
30/04:30am 9.7 0.6 6.6 81 1.5 NW 44 57 24 31 1013.2 1013.2 0.4
30/04:00am 9.6 1.0 6.7 82 1.4 NW 41 54 22 29 1013.5 1013.5 0.4
30/03:30am 9.7 1.6 6.8 82 1.4 NW 39 52 21 28 1013.7 1013.7 0.4
30/03:27am 9.7 1.6 6.8 82 1.4 NW 39 57 21 31 1013.7 1013.7 0.4
30/03:00am 9.8 2.1 7.1 83 1.3 NW 37 48 20 26 1013.9 1014.0 0.4
30/02:35am 9.9 1.5 7.2 83 1.3 NW 41 59 22 32 1014.3 1014.4 0.2
30/02:30am 9.9 2.2 7.0 82 1.4 NW 37 48 20 26 1014.3 1014.4 0.2
30/02:00am 10.4 1.8 6.4 76 1.9 NW 41 54 22 29 1014.3 1014.4 0.0
30/01:30am 10.1 2.6 6.3 77 1.8 NW 35 43 19 23 1014.9 1015.0 0.0
30/01:18am 10.1 3.1 6.1 76 1.9 NNW 32 50 17 27 1014.9 1015.0 0.0
30/01:00am 10.4 3.2 5.8 73 2.1 NNW 33 48 18 26 1015.3 1015.4 0.0
30/12:33am 10.3 4.0 5.9 74 2.0 N 28 52 15 28 1015.4 1015.5 0.0
30/12:30am 9.6 4.9 6.1 79 1.6 N 20 43 11 23 1015.5 1015.6 0.0
30/12:00am 6.8 2.3 4.3 84 1.1 N 17 28 9 15 1015.6 1015.7 0.0
 
Date/Time
CST
Temp
°C
App
Temp
°C
Dew
Point
°C
Rel
Hum
%
Delta-T
°C
Wind Press
QNH
hPa
Press
MSL
hPa
Rain since
9am
mm
Dir  Spd
km/h
Gust
km/h
Spd
kts
Gust
kts
29/11:30pm 7.3 1.9 4.6 83 1.2 NNE 22 41 12 22 1015.9 1016.0 0.0
29/11:00pm 8.5 1.2 4.7 77 1.7 NNE 32 44 17 24 1016.2 1016.3 0.0
29/10:30pm 7.6 1.2 5.1 84 1.1 NE 28 35 15 19 1016.7 1016.8 0.0
29/10:00pm 7.5 1.8 5.1 85 1.1 NNE 24 30 13 16 1016.9 1017.0 0.0
29/09:30pm 8.0 2.0 5.3 83 1.2 NNE 26 32 14 17 1017.4 1017.5 0.0
29/09:00pm 7.8 1.8 5.3 84 1.1 N 26 30 14 16 1017.4 1017.5 0.0
29/08:30pm 8.2 1.8 5.3 82 1.3 N 28 32 15 17 1017.4 1017.5 0.0
29/08:00pm 8.2 2.6 5.3 82 1.3 N 24 28 13 15 1017.7 1017.8 0.0
29/07:30pm 8.2 2.9 5.1 81 1.4 NNE 22 28 12 15 1017.7 1017.8 0.0
29/07:00pm 9.0 3.0 5.4 78 1.6 NNE 26 32 14 17 1017.8 1017.9 0.0
29/06:30pm 10.0 4.1 5.6 74 2.0 N 26 33 14 18 1017.9 1018.0 0.0
29/06:00pm 10.0 4.1 5.6 74 2.0 N 26 33 14 18 1017.9 1018.0 0.0
29/05:30pm 10.5 3.8 5.5 71 2.3 N 30 41 16 22 1018.0 1018.1 0.0
29/05:00pm 11.0 4.6 5.3 68 2.6 N 28 39 15 21 1018.3 1018.4 0.0
29/04:30pm 11.8 4.1 5.2 64 3.0 N 35 46 19 25 1018.3 1018.4 0.0
29/04:00pm 12.2 3.8 5.4 63 3.2 N 39 54 21 29 1018.7 1018.8 0.0
29/03:30pm 12.4 2.9 5.1 61 3.4 N 44 57 24 31 1019.0 1019.1 0.0
29/03:00pm 12.6 1.9 4.8 59 3.6 N 50 65 27 35 1019.3 1019.4 0.0
29/02:34pm 12.3 2.4 5.0 61 3.4 N 46 67 25 36 1019.6 1019.7 0.0
29/02:30pm 12.6 3.5 6.0 64 3.1 N 43 59 23 32 1019.7 1019.8 0.0
29/02:02pm 11.8 2.7 5.7 66 2.9 N 43 61 23 33 1020.0 1020.1 0.0
29/02:00pm 11.9 2.6 6.0 67 2.8 N 44 61 24 33 1020.0 1020.1 0.0
29/01:38pm 11.4 2.6 5.7 68 2.7 N 41 59 22 32 1020.4 1020.5 0.0
29/01:30pm 11.5 3.2 6.2 70 2.5 N 39 50 21 27 1020.6 1020.7 0.0
29/01:00pm 11.4 3.1 6.1 70 2.5 N 39 50 21 27 1021.3 1021.4 0.0
29/12:30pm 11.3 4.4 6.6 73 2.2 N 32 44 17 24 1021.9 1022.1 0.0
29/12:00pm 10.3 4.8 7.4 82 1.4 NNE 26 35 14 19 1022.5 1022.6 0.0
29/11:30am 9.7 4.5 7.1 84 1.2 NNE 24 30 13 16 1023.2 1023.3 0.0
29/11:00am 8.9 4.0 6.9 87 0.9 NNE 22 30 12 16 1023.8 1023.9 0.0
29/10:30am 8.5 3.1 6.3 86 1.0 NNE 24 28 13 15 1024.4 1024.5 0.0
29/10:00am 8.1 3.0 5.9 86 1.0 N 22 26 12 14 1024.9 1025.0 0.0
29/09:30am 7.7 2.5 5.7 87 0.9 N 22 28 12 15 1025.0 1025.1 0.0
29/09:00am 7.4 1.4 5.4 87 0.9 N 26 33 14 18 1024.8 1024.9 0.0
29/08:30am 7.5 1.1 5.1 85 1.1 N 28 32 15 17 1024.8 1024.9 0.0
29/08:00am 6.9 0.5 5.1 88 0.8 N 28 33 15 18 1024.8 1024.9 0.0
29/07:30am 6.8 1.1 5.0 88 0.8 N 24 32 13 17 1024.7 1024.8 0.0
29/07:00am 6.6 0.9 4.9 89 0.7 N 24 28 13 15 1024.7 1024.8 0.0
29/06:30am 6.9 1.2 4.9 87 0.9 N 24 32 13 17 1024.7 1024.8 0.0
29/06:00am 6.8 1.1 4.8 87 0.9 N 24 28 13 15 1024.6 1024.7 0.0
29/05:30am 6.8 1.1 5.1 89 0.7 N 24 32 13 17 1024.6 1024.7 0.0
29/05:00am 3.0 -1.9 2.1 94 0.4 NE 17 19 9 10 1024.6 1024.7 0.0
29/04:30am 3.5 -1.7 2.6 94 0.4 NNE 19 20 10 11 1024.6 1024.7 0.0
29/04:00am 4.2 -1.1 3.0 92 0.5 NNE 20 22 11 12 1024.7 1024.8 0.0
29/03:30am 4.3 -0.8 3.0 91 0.5 NNE 19 20 10 11 1024.8 1024.9 0.0
29/03:00am 4.6 -0.5 3.1 90 0.6 N 19 22 10 12 1025.0 1025.1 0.0
29/02:30am 4.4 -0.7 3.2 92 0.5 N 19 20 10 11 1025.3 1025.4 0.0
29/02:00am 3.9 -0.8 2.9 93 0.4 N 17 19 9 10 1025.5 1025.6 0.0
29/01:30am 4.4 -0.7 3.2 92 0.5 N 19 22 10 12 1025.7 1025.8 0.0
29/01:00am 5.0 -0.3 3.2 88 0.7 N 20 24 11 13 1025.7 1025.8 0.0
29/12:30am 7.2 1.4 4.3 82 1.3 N 24 28 13 15 1025.9 1026.0 0.0
29/12:00am 5.2 0.1 3.9 91 0.5 N 20 24 11 13 1026.0 1026.1 0.0
 
Date/Time
CST
Temp
°C
App
Temp
°C
Dew
Point
°C
Rel
Hum
%
Delta-T
°C
Wind Press
QNH
hPa
Press
MSL
hPa
Rain since
9am
mm
Dir  Spd
km/h
Gust
km/h
Spd
kts
Gust
kts
28/11:30pm 4.1 -0.6 3.4 95 0.3 N 17 19 9 10 1026.3 1026.4 0.0
28/11:00pm 3.2 -0.5 2.5 95 0.3 N 11 13 6 7 1026.4 1026.5 0.0
28/10:30pm 3.4 0.1 2.4 93 0.4 N 9 11 5 6 1026.4 1026.5 0.0
28/10:00pm 4.0 1.4 3.1 94 0.4 N 6 7 3 4 1026.5 1026.6 0.0
28/09:30pm 4.2 1.0 3.2 93 0.4 N 9 11 5 6 1026.8 1026.9 0.0
28/09:00pm 4.7 0.9 3.7 93 0.4 N 13 15 7 8 1026.8 1026.9 0.0
28/08:30pm 5.4 2.0 3.9 90 0.6 N 11 13 6 7 1026.6 1026.7 0.0
28/08:00pm 6.3 3.2 3.8 84 1.1 N 9 13 5 7 1026.4 1026.5 0.0
28/07:30pm 6.9 3.9 3.9 81 1.3 NNW 9 11 5 6 1026.3 1026.4 0.0
28/07:00pm 6.3 2.6 4.3 87 0.9 N 13 17 7 9 1026.4 1026.5 0.0
28/06:30pm 7.0 3.0 4.8 86 1.0 N 15 20 8 11 1026.2 1026.3 0.0
28/06:00pm 7.0 3.8 5.2 88 0.8 NNW 11 13 6 7 1026.2 1026.3 0.0
28/05:30pm 8.1 4.7 5.7 85 1.1 N 13 15 7 8 1026.2 1026.3 0.0
28/05:00pm 10.6 7.8 6.9 78 1.8 N 11 15 6 8 1026.3 1026.4 0.0
28/04:30pm 13.5 10.1 5.9 60 3.6 NNW 13 17 7 9 1026.3 1026.4 0.0
28/04:00pm 14.4 9.8 5.5 55 4.2 NW 19 26 10 14 1026.5 1026.6 0.0
28/03:30pm 14.7 10.2 6.8 59 3.8 NNW 20 26 11 14 1026.4 1026.5 0.0
28/03:00pm 14.4 9.8 6.5 59 3.8 NNW 20 26 11 14 1026.4 1026.5 0.0
28/02:30pm 15.0 10.0 6.6 57 4.1 NNW 22 33 12 18 1026.5 1026.6 0.0
28/02:00pm 15.0 10.1 8.5 65 3.3 NNW 24 30 13 16 1026.5 1026.6 0.0
28/01:30pm 14.7 10.0 7.7 63 3.5 NNW 22 32 12 17 1026.7 1026.8 0.0
28/01:00pm 14.6 9.6 7.9 64 3.4 NNW 24 30 13 16 1027.0 1027.1 0.0
28/12:30pm 14.6 10.6 9.0 69 2.8 NNW 20 28 11 15 1027.3 1027.4 0.0
28/12:00pm 13.9 9.8 8.5 70 2.7 NNW 20 26 11 14 1027.7 1027.8 0.0
28/11:30am 13.7 10.7 9.2 74 2.3 NNW 15 24 8 13 1028.2 1028.3 0.0
28/11:00am 12.9 9.2 8.0 72 2.4 NNW 17 22 9 12 1028.3 1028.4 0.0
28/10:30am 10.7 6.9 7.6 81 1.5 NNE 17 20 9 11 1028.4 1028.5 0.0
28/10:00am 9.0 5.0 6.6 85 1.1 NNE 17 20 9 11 1028.4 1028.5 0.0
28/09:30am 7.7 3.0 6.0 89 0.8 N 20 24 11 13 1028.0 1028.1 0.0
28/09:00am 6.5 1.8 5.0 90 0.7 N 19 22 10 12 1027.7 1027.8 0.2
28/08:30am 5.3 0.8 4.3 93 0.4 N 17 20 9 11 1027.4 1027.5 0.2
28/08:00am 4.5 -0.1 3.6 94 0.4 N 17 19 9 10 1027.2 1027.3 0.2
28/07:30am 4.3 -0.9 3.4 94 0.4 N 20 22 11 12 1027.0 1027.1 0.2
28/07:00am 3.4 -1.1 2.4 93 0.4 N 15 17 8 9 1026.7 1026.8 0.2
28/06:30am 4.5 -0.1 3.8 95 0.3 N 17 20 9 11 1026.2 1026.3 0.2
28/06:00am 3.6 -1.1 2.9 95 0.3 N 17 19 9 10 1025.8 1025.9 0.2
28/05:30am 3.7 -1.1 2.8 94 0.4 N 17 20 9 11 1025.5 1025.6 0.2
28/05:00am 5.5 1.0 4.3 92 0.5 N 17 20 9 11 1025.2 1025.3 0.2
28/04:30am 4.2 -0.1 3.5 95 0.3 N 15 19 8 10 1025.2 1025.3 0.2
28/04:00am 4.9 0.4 4.0 94 0.4 N 17 19 9 10 1025.2 1025.3 0.0
28/03:30am 5.1 1.4 4.5 96 0.3 N 13 19 7 10 1025.2 1025.3 0.0
28/03:00am 4.9 0.8 4.3 96 0.3 N 15 17 8 9 1025.3 1025.4 0.0
28/02:30am 4.6 0.4 4.0 96 0.3 N 15 17 8 9 1025.4 1025.5 0.0
28/02:00am 4.4 0.2 3.7 95 0.3 NNE 15 17 8 9 1025.3 1025.4 0.0
28/01:30am 6.6 2.8 5.6 93 0.4 N 15 17 8 9 1025.1 1025.2 0.0
28/01:00am 7.4 3.3 6.2 92 0.5 NW 17 20 9 11 1025.3 1025.4 0.0
28/12:30am 6.3 2.1 5.6 95 0.3 NW 17 19 9 10 1025.3 1025.4 0.0
28/12:00am 7.1 3.4 6.2 94 0.4 NNW 15 17 8 9 1025.4 1025.5 0.0
 
Date/Time
CST
Temp
°C
App
Temp
°C
Dew
Point
°C
Rel
Hum
%
Delta-T
°C
Wind Press
QNH
hPa
Press
MSL
hPa
Rain since
9am
mm
Dir  Spd
km/h
Gust
km/h
Spd
kts
Gust
kts
27/11:30pm 7.3 3.6 6.1 92 0.5 NW 15 17 8 9 1025.4 1025.5 0.0
27/11:00pm 5.8 1.8 4.9 94 0.4 N 15 19 8 10 1025.1 1025.2 0.0
27/10:30pm 5.3 1.3 4.7 96 0.3 N 15 19 8 10 1025.2 1025.3 0.0
27/10:00pm 5.3 2.0 4.7 96 0.3 WNW 11 13 6 7 1025.1 1025.2 0.0
27/09:30pm 5.6 2.3 4.7 94 0.4 WNW 11 13 6 7 1025.0 1025.1 0.0
27/09:00pm 6.2 3.4 5.0 92 0.5 WNW 9 11 5 6 1024.9 1025.0 0.0
27/08:30pm 7.5 5.5 6.3 92 0.5 WNW 6 9 3 5 1024.8 1024.9 0.0
27/08:00pm 8.2 5.5 5.8 85 1.1 WNW 9 13 5 7 1024.4 1024.5 0.0
27/07:30pm 8.8 4.9 6.9 88 0.9 WNW 17 20 9 11 1024.2 1024.3 0.0
27/07:00pm 7.5 6.1 5.6 88 0.9 W 2 7 1 4 1023.9 1024.0 0.0
27/06:30pm 8.2 5.3 6.3 88 0.9 W 11 15 6 8 1023.6 1023.7 0.0
27/06:00pm 7.6 6.1 5.2 85 1.1 W 2 9 1 5 1023.3 1023.4 0.0
27/05:30pm 9.4 6.1 6.5 82 1.3 W 13 15 7 8 1023.0 1023.1 0.0
27/05:00pm 11.2 7.6 6.7 74 2.1 W 15 17 8 9 1022.7 1022.8 0.0
27/04:30pm 12.9 8.9 6.7 66 3.0 WSW 17 22 9 12 1022.6 1022.7 0.0
27/04:00pm 13.8 10.5 8.0 68 2.9 SW 15 20 8 11 1022.2 1022.4 0.0
27/03:30pm 14.0 10.3 7.8 66 3.1 WSW 17 26 9 14 1022.0 1022.2 0.0
27/03:00pm 12.7 8.9 7.4 70 2.6 WSW 17 20 9 11 1021.8 1022.0 0.0
27/02:30pm 11.9 7.6 7.8 76 2.0 W 20 26 11 14 1021.6 1021.8 0.0

Other Formats:

Comma delimited format used in spreadsheet applications
http://www.bom.gov.au/fwo/IDS60801/IDS60801.95670.axf

JavaScript Object Notation format (JSON) in row-major order
http://www.bom.gov.au/fwo/IDS60801/IDS60801.95670.json